createdAt,value
2019-02-28T00:02:04.353Z,57.70
2019-02-28T00:04:33.792Z,57.50
2019-02-28T00:07:03.215Z,57.10
2019-02-28T00:09:32.681Z,57.10
2019-02-28T00:12:02.172Z,56.80
2019-02-28T00:14:31.605Z,57.10
2019-02-28T00:17:02.197Z,57.10
2019-02-28T00:19:31.638Z,57.10
2019-02-28T00:22:01.059Z,57.00
2019-02-28T00:24:30.817Z,56.90
2019-02-28T00:27:00.330Z,56.70
2019-02-28T00:29:33.427Z,56.60
2019-02-28T00:32:00.916Z,56.80
2019-02-28T00:34:30.346Z,56.70
2019-02-28T00:36:59.763Z,56.60
2019-02-28T00:39:31.385Z,57.00
2019-02-28T00:42:00.357Z,56.40
2019-02-28T00:44:31.295Z,56.20
2019-02-28T00:47:00.921Z,56.40
2019-02-28T00:49:30.340Z,56.40
2019-02-28T00:52:01.611Z,56.20
2019-02-28T00:54:30.936Z,56.20
2019-02-28T00:57:00.375Z,56.10
2019-02-28T00:59:31.684Z,56.20
2019-02-28T01:02:00.959Z,56.30
2019-02-28T01:04:30.905Z,56.30
2019-02-28T01:07:00.401Z,56.30
2019-02-28T01:09:30.158Z,56.40
2019-02-28T01:12:00.468Z,56.50
2019-02-28T01:14:32.409Z,56.40
2019-02-28T01:17:01.074Z,56.60
2019-02-28T01:19:30.510Z,56.80
2019-02-28T01:21:59.952Z,56.80
2019-02-28T01:24:34.525Z,57.00
2019-02-28T01:27:00.540Z,57.30
2019-02-28T01:29:29.982Z,57.40
2019-02-28T01:31:59.432Z,57.00
2019-02-28T01:34:29.048Z,57.30
2019-02-28T01:37:00.030Z,57.20
2019-02-28T01:39:30.707Z,57.00
2019-02-28T01:42:00.175Z,57.50
2019-02-28T01:44:29.597Z,56.90
2019-02-28T01:46:59.041Z,57.00
2019-02-28T01:49:28.475Z,56.80
2019-02-28T01:51:57.909Z,57.30
2019-02-28T01:54:27.760Z,57.10
2019-02-28T01:56:57.942Z,57.10
2019-02-28T01:59:27.358Z,56.80
2019-02-28T02:01:56.796Z,56.90
2019-02-28T02:04:26.220Z,57.00
2019-02-28T02:06:59.623Z,56.70
2019-02-28T02:09:26.810Z,56.70
2019-02-28T02:11:58.027Z,57.00
2019-02-28T02:14:27.390Z,56.70
2019-02-28T02:16:58.278Z,56.70
2019-02-28T02:19:27.973Z,56.50
2019-02-28T02:21:57.411Z,56.30
2019-02-28T02:24:27.857Z,56.30
2019-02-28T02:26:58.001Z,56.50
2019-02-28T02:29:27.433Z,56.40
2019-02-28T02:32:01.172Z,56.40
2019-02-28T02:34:29.418Z,56.50
2019-02-28T02:36:59.047Z,57.20
2019-02-28T02:39:28.480Z,56.60
2019-02-28T02:41:57.972Z,56.70
2019-02-28T02:44:31.080Z,56.70
2019-02-28T02:46:58.494Z,56.70
2019-02-28T02:49:27.933Z,56.60
2019-02-28T02:51:57.376Z,56.80
2019-02-28T02:54:26.799Z,56.90
2019-02-28T02:56:56.237Z,56.90
2019-02-28T02:59:25.679Z,57.20
2019-02-28T03:01:56.191Z,57.30
2019-02-28T03:04:26.289Z,57.20
2019-02-28T03:06:55.747Z,57.20
2019-02-28T03:09:25.198Z,57.20
2019-02-28T03:11:57.683Z,58.20
2019-02-28T03:14:30.886Z,58.00
2019-02-28T03:17:00.319Z,57.40
2019-02-28T03:19:33.553Z,57.60
2019-02-28T03:22:00.914Z,57.70
2019-02-28T03:24:30.352Z,57.80
2019-02-28T03:26:59.778Z,57.90
2019-02-28T03:29:29.229Z,57.80
2019-02-28T03:31:59.526Z,57.90
2019-02-28T03:34:29.361Z,57.90
2019-02-28T03:36:58.807Z,58.00
2019-02-28T03:39:28.232Z,57.70
2019-02-28T03:41:57.666Z,57.70
2019-02-28T03:44:27.113Z,57.90
2019-02-28T03:46:56.538Z,57.70
2019-02-28T03:49:25.979Z,57.60
2019-02-28T03:51:55.401Z,57.70
2019-02-28T03:54:28.831Z,57.60
2019-02-28T03:56:56.116Z,57.70
2019-02-28T03:59:25.725Z,57.80
2019-02-28T04:01:55.177Z,57.80
2019-02-28T04:04:24.882Z,57.70
2019-02-28T04:06:54.304Z,57.90
2019-02-28T04:09:23.747Z,57.90
2019-02-28T04:11:53.204Z,58.00
2019-02-28T04:14:22.623Z,58.10
2019-02-28T04:16:54.082Z,58.20
2019-02-28T04:19:23.238Z,58.40
2019-02-28T04:21:52.619Z,58.40
2019-02-28T04:24:22.044Z,58.50
2019-02-28T04:26:51.497Z,58.60
2019-02-28T04:29:20.906Z,58.70
2019-02-28T04:31:51.359Z,58.80
2019-02-28T04:34:21.513Z,59.00
2019-02-28T04:36:51.943Z,59.00
2019-02-28T04:39:22.745Z,59.00
2019-02-28T04:41:52.545Z,59.00
2019-02-28T04:44:21.956Z,58.90
2019-02-28T04:46:51.391Z,59.00
2019-02-28T04:49:22.697Z,58.90
2019-02-28T04:51:51.984Z,58.90
2019-02-28T04:54:24.436Z,59.00
2019-02-28T04:56:52.558Z,58.70
2019-02-28T04:59:21.980Z,58.80
2019-02-28T05:01:51.413Z,58.80
2019-02-28T05:04:20.833Z,58.70
2019-02-28T05:06:52.139Z,58.70
2019-02-28T05:09:21.473Z,58.60
2019-02-28T05:11:50.892Z,58.70
2019-02-28T05:14:23.497Z,58.60
2019-02-28T05:16:51.508Z,58.60
2019-02-28T05:19:20.993Z,58.50
2019-02-28T05:21:50.675Z,58.70
2019-02-28T05:24:21.603Z,59.20
2019-02-28T05:26:51.052Z,58.60
2019-02-28T05:29:20.487Z,58.50
2019-02-28T05:31:50.025Z,58.70
2019-02-28T05:34:19.441Z,58.70
2019-02-28T05:36:48.915Z,58.70
2019-02-28T05:39:18.348Z,58.80
2019-02-28T05:41:49.358Z,58.80
2019-02-28T05:44:21.228Z,58.70
2019-02-28T05:46:50.217Z,58.90
2019-02-28T05:49:19.653Z,69.20
2019-02-28T05:51:49.134Z,62.00
2019-02-28T05:54:18.600Z,58.50
2019-02-28T05:56:48.041Z,58.20
2019-02-28T05:59:17.454Z,58.40
2019-02-28T06:01:47.766Z,58.60
2019-02-28T06:04:17.323Z,58.80
2019-02-28T06:06:46.792Z,58.80
2019-02-28T06:09:16.225Z,59.10
2019-02-28T06:11:45.686Z,59.10
2019-02-28T06:14:15.123Z,59.00
2019-02-28T06:16:46.897Z,59.20
2019-02-28T06:19:15.765Z,59.20
2019-02-28T06:21:45.200Z,59.10
2019-02-28T06:24:14.652Z,59.20
2019-02-28T06:26:44.112Z,59.30
2019-02-28T06:29:13.547Z,59.20
2019-02-28T06:31:45.439Z,59.30
2019-02-28T06:34:14.151Z,58.90
2019-02-28T06:36:43.596Z,58.90
2019-02-28T06:39:13.029Z,58.80
2019-02-28T06:41:42.500Z,58.60
2019-02-28T06:44:11.931Z,59.20
2019-02-28T06:46:41.402Z,58.60
2019-02-28T06:49:10.827Z,58.70
2019-02-28T06:51:40.269Z,58.30
2019-02-28T06:54:09.694Z,57.90
2019-02-28T06:56:39.188Z,58.00
2019-02-28T06:59:08.602Z,57.90
2019-02-28T07:01:38.050Z,56.80
2019-02-28T07:04:07.499Z,54.90
2019-02-28T07:06:36.951Z,54.50
2019-02-28T07:09:07.666Z,54.40
2019-02-28T07:11:37.116Z,53.60
2019-02-28T07:14:06.578Z,53.10
2019-02-28T07:16:37.947Z,51.80
2019-02-28T07:19:07.183Z,51.10
2019-02-28T07:21:42.838Z,50.10
2019-02-28T07:24:07.854Z,48.80
2019-02-28T07:26:37.229Z,47.30
2019-02-28T07:29:11.050Z,46.70
2019-02-28T07:31:37.854Z,45.90
2019-02-28T07:34:07.312Z,44.80
2019-02-28T07:36:36.753Z,44.50
2019-02-28T07:39:07.354Z,43.40
2019-02-28T07:41:36.806Z,43.20
2019-02-28T07:44:06.246Z,42.80
2019-02-28T07:46:38.571Z,41.80
2019-02-28T07:49:07.016Z,42.00
2019-02-28T07:51:36.480Z,41.80
2019-02-28T07:54:05.929Z,41.40
2019-02-28T07:56:35.367Z,41.40
2019-02-28T07:59:05.477Z,41.00
2019-02-28T08:01:35.727Z,39.80
2019-02-28T08:04:05.399Z,39.30
2019-02-28T08:06:36.363Z,38.90
2019-02-28T08:09:10.566Z,38.40
2019-02-28T08:11:40.015Z,38.40
2019-02-28T08:14:12.121Z,38.00
2019-02-28T08:16:40.640Z,37.60
2019-02-28T08:19:10.238Z,36.30
2019-02-28T08:21:43.920Z,35.70
2019-02-28T08:24:10.863Z,35.10
2019-02-28T08:26:40.308Z,34.40
2019-02-28T08:29:11.689Z,33.90
2019-02-28T08:31:40.933Z,33.80
2019-02-28T08:34:10.368Z,33.10
2019-02-28T08:36:39.820Z,33.60
2019-02-28T08:39:11.991Z,33.00
2019-02-28T08:41:43.242Z,32.90
2019-02-28T08:44:12.725Z,33.40
2019-02-28T08:46:43.504Z,33.70
2019-02-28T08:49:13.322Z,32.80
2019-02-28T08:51:43.307Z,33.10
2019-02-28T08:54:12.814Z,33.50
2019-02-28T08:56:42.328Z,32.90
2019-02-28T08:59:12.232Z,32.50
2019-02-28T09:01:44.231Z,32.80
2019-02-28T09:04:13.785Z,33.10
2019-02-28T09:06:43.228Z,32.50
2019-02-28T09:09:14.593Z,32.10
2019-02-28T09:11:44.254Z,32.60
2019-02-28T09:14:14.773Z,32.30
2019-02-28T09:16:44.882Z,32.10
2019-02-28T09:19:14.325Z,32.10
2019-02-28T09:21:43.755Z,31.20
2019-02-28T09:24:13.651Z,30.90
2019-02-28T09:26:43.157Z,30.50
2019-02-28T09:29:12.624Z,30.40
2019-02-28T09:31:42.063Z,29.80
2019-02-28T09:34:11.515Z,30.00
2019-02-28T09:36:40.952Z,29.90
2019-02-28T09:39:10.425Z,30.00
2019-02-28T09:41:41.017Z,30.00
2019-02-28T09:44:10.904Z,30.10
2019-02-28T09:46:40.338Z,29.60
2019-02-28T09:49:12.971Z,28.80
2019-02-28T09:51:42.487Z,28.50
2019-02-28T09:54:12.073Z,28.80
2019-02-28T09:56:44.528Z,28.40
2019-02-28T09:59:12.677Z,28.20
2019-02-28T10:01:42.574Z,28.60
2019-02-28T10:04:12.141Z,28.60
2019-02-28T10:06:41.585Z,28.50
2019-02-28T10:09:11.083Z,28.10
2019-02-28T10:11:40.641Z,28.20
2019-02-28T10:14:12.030Z,28.80
2019-02-28T10:16:41.312Z,28.90
2019-02-28T10:19:13.278Z,28.70
2019-02-28T10:21:41.933Z,28.80
2019-02-28T10:24:11.595Z,27.70
2019-02-28T10:26:41.035Z,27.90
2019-02-28T10:29:10.494Z,26.40
2019-02-28T10:31:39.924Z,26.70
2019-02-28T10:34:09.390Z,26.90
2019-02-28T10:36:38.815Z,27.40
2019-02-28T10:39:09.042Z,28.00
2019-02-28T10:41:39.165Z,28.30
2019-02-28T10:44:08.672Z,28.70
2019-02-28T10:46:38.107Z,28.00
2019-02-28T10:49:07.564Z,27.30
2019-02-28T10:51:37.000Z,27.00
2019-02-28T10:54:06.457Z,27.40
2019-02-28T10:56:35.895Z,27.70
2019-02-28T10:59:05.353Z,27.40
2019-02-28T11:01:35.793Z,27.80
2019-02-28T11:04:07.440Z,27.90
2019-02-28T11:06:39.327Z,28.60
2019-02-28T11:09:10.181Z,28.00
2019-02-28T11:11:42.574Z,28.20
2019-02-28T11:14:10.840Z,28.50
2019-02-28T11:16:40.274Z,28.80
2019-02-28T11:19:09.734Z,28.80
2019-02-28T11:21:39.184Z,28.00
2019-02-28T11:24:08.640Z,28.20
2019-02-28T11:26:38.151Z,28.40
2019-02-28T11:29:07.600Z,28.50
2019-02-28T11:31:37.108Z,27.40
2019-02-28T11:34:06.801Z,27.50
2019-02-28T11:36:36.506Z,27.80
2019-02-28T11:39:07.803Z,28.10
2019-02-28T11:41:37.248Z,27.90
2019-02-28T11:44:09.240Z,29.00
2019-02-28T11:46:38.225Z,28.20
2019-02-28T11:49:07.640Z,28.60
2019-02-28T11:51:37.425Z,27.90
2019-02-28T11:54:06.946Z,27.70
2019-02-28T11:56:36.389Z,27.50
2019-02-28T11:59:06.008Z,27.80
2019-02-28T12:01:35.449Z,28.20
2019-02-28T12:04:04.963Z,28.20
2019-02-28T12:06:34.400Z,27.80
2019-02-28T12:09:04.498Z,27.80
2019-02-28T12:11:36.511Z,28.00
2019-02-28T12:14:06.311Z,28.50
2019-02-28T12:16:35.839Z,28.20
2019-02-28T12:19:05.287Z,28.60
2019-02-28T12:21:37.596Z,29.00
2019-02-28T12:24:05.912Z,29.20
2019-02-28T12:26:35.360Z,29.10
2019-02-28T12:33:22.990Z,30.40
2019-02-28T12:36:11.309Z,30.00
2019-02-28T12:39:02.315Z,30.70
2019-02-28T12:41:50.502Z,30.30
2019-02-28T12:44:39.286Z,30.50
2019-02-28T12:50:37.459Z,30.10
2019-02-28T12:53:26.236Z,30.40
2019-02-28T12:56:15.027Z,31.10
2019-02-28T12:58:56.342Z,31.40
2019-02-28T13:01:45.143Z,32.00
2019-02-28T13:04:35.869Z,32.50
2019-02-28T13:07:24.452Z,31.40
2019-02-28T13:10:34.150Z,30.20
2019-02-28T13:13:27.391Z,30.30
2019-02-28T13:16:13.471Z,30.90
2019-02-28T13:19:02.242Z,30.70
2019-02-28T13:21:51.073Z,30.30
2019-02-28T13:24:42.393Z,30.00
2019-02-28T13:27:32.070Z,30.00
2019-02-28T13:30:40.721Z,30.70
2019-02-28T13:33:30.679Z,30.90
2019-02-28T13:36:21.690Z,31.30
2019-02-28T13:39:09.960Z,31.50
2019-02-28T13:42:02.646Z,30.80
2019-02-28T13:44:49.269Z,31.10
2019-02-28T13:47:38.118Z,31.80
2019-02-28T13:50:47.824Z,31.80
2019-02-28T13:53:36.597Z,32.40
2019-02-28T13:56:25.418Z,32.60
2019-02-28T13:59:07.201Z,32.20
2019-02-28T14:01:56.188Z,32.50
2019-02-28T14:04:46.520Z,32.70
2019-02-28T14:07:42.504Z,31.50
2019-02-28T14:10:33.529Z,32.10
2019-02-28T14:13:21.959Z,31.80
2019-02-28T14:16:10.735Z,32.10
2019-02-28T14:18:59.514Z,31.50
2019-02-28T14:21:48.307Z,31.30
2019-02-28T14:24:37.083Z,31.50
2019-02-28T14:27:26.262Z,31.70
2019-02-28T14:30:36.402Z,31.80
2019-02-28T14:33:25.177Z,32.60
2019-02-28T14:36:13.975Z,32.70
2019-02-28T14:42:12.195Z,33.50
2019-02-28T14:45:03.930Z,33.90
2019-02-28T14:48:10.521Z,34.00
2019-02-28T14:50:59.310Z,33.10
2019-02-28T14:53:49.099Z,32.90
2019-02-28T14:56:41.873Z,33.30
2019-02-28T14:59:22.495Z,33.70
2019-02-28T15:02:32.193Z,33.90
2019-02-28T15:05:21.657Z,35.30
2019-02-28T15:08:11.856Z,34.80
2019-02-28T15:11:02.057Z,35.10
2019-02-28T15:13:52.893Z,35.60
2019-02-28T15:16:41.352Z,36.00
2019-02-28T15:19:30.135Z,36.50
2019-02-28T15:22:21.077Z,36.70
2019-02-28T15:25:30.396Z,36.90
2019-02-28T15:28:19.168Z,37.30
2019-02-28T15:31:08.592Z,37.50
2019-02-28T15:33:58.482Z,37.30
2019-02-28T15:36:47.279Z,37.70
2019-02-28T15:39:36.064Z,37.70
2019-02-28T15:42:24.868Z,37.90
2019-02-28T15:45:07.466Z,38.00
2019-02-28T15:47:58.972Z,38.00
2019-02-28T15:50:51.172Z,38.20
2019-02-28T15:53:37.349Z,38.60
2019-02-28T15:56:26.153Z,38.90
2019-02-28T16:02:22.685Z,38.80
2019-02-28T16:05:11.560Z,38.90
2019-02-28T16:08:00.357Z,39.20
2019-02-28T16:10:53.299Z,39.20
2019-02-28T16:13:39.711Z,39.30
2019-02-28T16:16:28.506Z,39.10
2019-02-28T16:19:18.876Z,38.90
2019-02-28T16:22:07.809Z,38.60
2019-02-28T16:24:56.576Z,38.70
2019-02-28T16:27:45.386Z,38.80
2019-02-28T16:30:34.184Z,38.60
2019-02-28T16:33:24.853Z,38.90
2019-02-28T16:36:13.511Z,39.10
2019-02-28T16:39:02.314Z,39.00
2019-02-28T16:41:51.139Z,39.20
2019-02-28T16:44:32.992Z,39.00
2019-02-28T16:47:24.468Z,38.80
2019-02-28T16:50:15.391Z,39.30
2019-02-28T16:56:17.663Z,39.20
2019-02-28T16:59:06.433Z,39.50
2019-02-28T17:01:55.820Z,39.60
2019-02-28T17:04:48.708Z,39.90
2019-02-28T17:07:36.258Z,40.20
2019-02-28T17:10:44.224Z,40.50
2019-02-28T17:13:52.090Z,40.70
2019-02-28T17:16:59.916Z,41.00
2019-02-28T17:22:58.578Z,41.80
2019-02-28T17:25:48.633Z,42.10
2019-02-28T17:28:56.465Z,42.40
2019-02-28T17:34:44.508Z,42.90
2019-02-28T17:37:33.310Z,43.20
2019-02-28T17:40:23.134Z,43.30
2019-02-28T17:43:12.651Z,43.50
2019-02-28T17:45:54.072Z,47.00
2019-02-28T17:49:23.292Z,47.20
2019-02-28T17:52:33.653Z,45.50
2019-02-28T17:55:44.497Z,46.10
2019-02-28T17:59:12.001Z,43.60
2019-02-28T18:02:39.504Z,43.90
2019-02-28T18:06:08.829Z,44.60
2019-02-28T18:09:24.194Z,45.00
2019-02-28T18:12:01.276Z,45.50
2019-02-28T18:14:50.114Z,45.60
2019-02-28T18:17:43.750Z,46.00
2019-02-28T18:20:45.212Z,46.20
2019-02-28T18:23:43.492Z,46.30
2019-02-28T18:26:39.427Z,46.60
2019-02-28T18:29:13.796Z,46.60
2019-02-28T18:31:43.268Z,46.80
2019-02-28T18:34:12.847Z,47.10
2019-02-28T18:36:43.524Z,47.20
2019-02-28T18:39:13.616Z,47.30
2019-02-28T18:41:43.275Z,47.50
2019-02-28T18:44:13.082Z,47.70
2019-02-28T18:46:43.504Z,47.80
2019-02-28T18:49:13.963Z,47.90
2019-02-28T18:51:43.518Z,48.10
2019-02-28T18:54:13.031Z,48.30
2019-02-28T18:56:42.563Z,48.60
2019-02-28T18:59:12.953Z,48.50
2019-02-28T19:01:42.492Z,48.90
2019-02-28T19:04:11.975Z,49.10
2019-02-28T19:06:41.515Z,49.20
2019-02-28T19:09:20.472Z,49.30
2019-02-28T19:11:49.954Z,49.40
2019-02-28T19:14:19.544Z,49.70
2019-02-28T19:16:49.076Z,49.80
2019-02-28T19:19:18.601Z,49.90
2019-02-28T19:21:48.107Z,49.90
2019-02-28T19:24:17.675Z,50.10
2019-02-28T19:26:47.233Z,50.20
2019-02-28T19:29:16.759Z,50.30
2019-02-28T19:31:46.221Z,50.40
2019-02-28T19:34:15.794Z,50.40
2019-02-28T19:36:45.214Z,50.60
2019-02-28T19:39:14.709Z,50.70
2019-02-28T19:41:44.230Z,50.80
2019-02-28T19:44:13.770Z,50.80
2019-02-28T19:46:43.255Z,50.90
2019-02-28T19:49:12.773Z,50.90
2019-02-28T19:51:42.332Z,50.80
2019-02-28T19:54:11.877Z,51.10
2019-02-28T19:56:41.360Z,51.10
2019-02-28T19:59:11.075Z,51.10
2019-02-28T20:01:40.624Z,51.00
2019-02-28T20:04:10.137Z,51.10
2019-02-28T20:06:39.708Z,51.30
2019-02-28T20:09:09.654Z,51.50
2019-02-28T20:11:39.188Z,51.50
2019-02-28T20:14:08.770Z,51.80
2019-02-28T20:16:38.260Z,51.70
2019-02-28T20:19:07.884Z,51.80
2019-02-28T20:21:37.421Z,51.80
2019-02-28T20:24:07.799Z,52.00
2019-02-28T20:26:37.290Z,52.70
2019-02-28T20:29:06.869Z,52.20
2019-02-28T20:31:36.373Z,52.30
2019-02-28T20:34:06.030Z,52.30
2019-02-28T20:36:35.527Z,52.40
2019-02-28T20:39:08.234Z,52.80
2019-02-28T20:41:37.721Z,52.80
2019-02-28T20:44:07.235Z,53.00
2019-02-28T20:46:36.767Z,53.20
2019-02-28T20:49:06.263Z,53.40
2019-02-28T20:51:35.845Z,53.70
2019-02-28T20:54:05.445Z,53.90
2019-02-28T20:56:34.973Z,54.20
2019-02-28T20:59:04.451Z,54.50
2019-02-28T21:01:34.003Z,54.60
2019-02-28T21:04:03.424Z,54.70
2019-02-28T21:06:33.214Z,54.80
2019-02-28T21:09:04.439Z,54.80
2019-02-28T21:11:33.982Z,55.00
2019-02-28T21:14:04.721Z,55.10
2019-02-28T21:16:34.196Z,55.20
2019-02-28T21:19:03.703Z,55.50
2019-02-28T21:21:33.191Z,55.70
2019-02-28T21:24:02.756Z,55.70
2019-02-28T21:26:32.247Z,55.90
2019-02-28T21:29:01.740Z,56.00
2019-02-28T21:31:31.271Z,56.30
2019-02-28T21:34:00.704Z,56.20
2019-02-28T21:36:30.228Z,56.30
2019-02-28T21:38:59.716Z,56.30
2019-02-28T21:41:29.255Z,56.50
2019-02-28T21:43:58.724Z,56.60
2019-02-28T21:46:28.240Z,56.80
2019-02-28T21:48:57.696Z,57.00
2019-02-28T21:51:27.228Z,57.30
2019-02-28T21:53:56.681Z,57.50
2019-02-28T21:56:26.213Z,58.10
2019-02-28T21:58:55.686Z,58.60
2019-02-28T22:01:25.201Z,58.50
2019-02-28T22:03:54.700Z,58.70
2019-02-28T22:06:24.217Z,59.10
2019-02-28T22:08:53.710Z,59.10
2019-02-28T22:11:23.228Z,59.50
2019-02-28T22:13:52.716Z,59.80
2019-02-28T22:16:22.171Z,60.00
2019-02-28T22:18:51.636Z,60.80
2019-02-28T22:21:21.127Z,61.20
2019-02-28T22:23:50.620Z,62.10
2019-02-28T22:26:20.107Z,62.10
2019-02-28T22:28:49.576Z,62.50
2019-02-28T22:31:32.318Z,62.90
2019-02-28T22:34:06.286Z,63.50
2019-02-28T22:36:37.547Z,64.10
2019-02-28T22:39:07.797Z,64.50
2019-02-28T22:41:37.285Z,64.80
2019-02-28T22:44:06.760Z,65.10
2019-02-28T22:46:36.313Z,65.50
2019-02-28T22:49:05.779Z,65.70
2019-02-28T22:51:35.334Z,65.90
2019-02-28T22:54:04.869Z,66.30
2019-02-28T22:56:34.390Z,66.60
2019-02-28T22:59:03.900Z,67.10
2019-02-28T23:01:35.804Z,67.50
2019-02-28T23:04:06.037Z,67.40
2019-02-28T23:06:35.520Z,67.70
2019-02-28T23:09:06.602Z,68.00
2019-02-28T23:11:36.053Z,68.20
2019-02-28T23:14:05.613Z,68.20
2019-02-28T23:16:35.200Z,67.70
2019-02-28T23:19:04.868Z,67.80
2019-02-28T23:21:34.383Z,67.80
2019-02-28T23:24:03.860Z,68.00
2019-02-28T23:26:54.555Z,68.70
2019-02-28T23:29:26.426Z,68.10
2019-02-28T23:32:18.507Z,68.50
2019-02-28T23:34:48.121Z,68.30
2019-02-28T23:37:17.585Z,68.50
2019-02-28T23:39:47.045Z,69.00
2019-02-28T23:42:16.534Z,68.70
2019-02-28T23:44:45.996Z,68.70
2019-02-28T23:47:15.494Z,68.60
2019-02-28T23:49:45.021Z,68.70
2019-02-28T23:52:14.522Z,68.80
2019-02-28T23:54:44.091Z,68.80
2019-02-28T23:57:13.605Z,68.50
2019-02-28T23:59:43.091Z,68.30
